createdAt,value
2022-09-28T00:01:06.626Z,20.00
2022-09-28T00:03:35.197Z,20.00
2022-09-28T00:06:04.164Z,19.90
2022-09-28T00:08:35.060Z,19.90
2022-09-28T00:11:04.141Z,19.90
2022-09-28T00:13:33.228Z,19.90
2022-09-28T00:16:02.870Z,19.80
2022-09-28T00:18:31.321Z,19.80
2022-09-28T00:21:03.572Z,19.70
2022-09-28T00:23:33.804Z,19.70
2022-09-28T00:26:05.871Z,19.70
2022-09-28T00:28:34.279Z,19.60
2022-09-28T00:31:02.761Z,19.60
2022-09-28T00:33:31.337Z,19.60
2022-09-28T00:35:59.819Z,19.60
2022-09-28T00:38:28.847Z,19.60
2022-09-28T00:40:59.704Z,19.60
2022-09-28T00:43:28.133Z,19.50
2022-09-28T00:45:59.540Z,19.50
2022-09-28T00:48:29.285Z,19.50
2022-09-28T00:50:57.950Z,19.60
2022-09-28T00:53:27.752Z,19.60
2022-09-28T00:55:58.100Z,19.50
2022-09-28T00:58:29.360Z,19.50
2022-09-28T01:01:00.293Z,19.50
2022-09-28T01:03:29.464Z,19.40
2022-09-28T01:05:59.535Z,19.40
2022-09-28T01:08:29.068Z,19.40
2022-09-28T01:10:58.582Z,19.30
2022-09-28T01:13:28.521Z,19.30
2022-09-28T01:16:00.549Z,19.30
2022-09-28T01:18:32.678Z,19.30
2022-09-28T01:21:02.600Z,19.30
2022-09-28T01:23:48.654Z,19.30
2022-09-28T01:26:31.796Z,19.40
2022-09-28T01:29:04.712Z,19.40
2022-09-28T01:31:34.265Z,19.50
2022-09-28T01:34:05.233Z,19.50
2022-09-28T01:36:36.772Z,19.50
2022-09-28T01:39:08.601Z,19.40
2022-09-28T01:41:40.333Z,19.40
2022-09-28T01:44:12.076Z,19.40
2022-09-28T01:46:44.871Z,19.40
2022-09-28T01:49:15.356Z,19.40
2022-09-28T01:51:45.930Z,19.40
2022-09-28T01:54:15.440Z,19.40
2022-09-28T01:56:46.260Z,19.30
2022-09-28T01:59:17.419Z,19.30
2022-09-28T02:01:48.944Z,19.30
2022-09-28T02:04:19.238Z,19.20
2022-09-28T02:06:49.053Z,19.20
2022-09-28T02:09:20.209Z,19.20
2022-09-28T02:11:51.623Z,19.10
2022-09-28T02:14:21.949Z,19.10
2022-09-28T02:16:54.286Z,19.10
2022-09-28T02:19:23.627Z,19.10
2022-09-28T02:21:55.259Z,19.10
2022-09-28T02:24:26.279Z,19.10
2022-09-28T02:26:56.599Z,19.10
2022-09-28T02:29:26.466Z,19.10
2022-09-28T02:31:54.912Z,19.10
2022-09-28T02:34:23.392Z,19.10
2022-09-28T02:36:51.876Z,19.10
2022-09-28T02:39:20.265Z,19.10
2022-09-28T02:41:55.940Z,19.00
2022-09-28T02:44:34.138Z,19.00
2022-09-28T02:47:06.056Z,19.00
2022-09-28T02:49:38.206Z,19.00
2022-09-28T02:52:13.798Z,19.00
2022-09-28T02:54:51.196Z,18.90
2022-09-28T02:57:26.012Z,19.00
2022-09-28T03:00:01.257Z,19.00
2022-09-28T03:02:33.031Z,19.00
2022-09-28T03:05:08.686Z,19.00
2022-09-28T03:07:38.240Z,19.00
2022-09-28T03:10:09.792Z,19.00
2022-09-28T03:12:39.542Z,19.00
2022-09-28T03:15:10.915Z,19.00
2022-09-28T03:17:39.789Z,19.00
2022-09-28T03:20:08.484Z,19.10
2022-09-28T03:22:36.822Z,19.00
2022-09-28T03:25:05.662Z,19.00
2022-09-28T03:27:34.179Z,19.00
2022-09-28T03:30:02.632Z,19.00
2022-09-28T03:32:32.452Z,19.00
2022-09-28T03:35:00.825Z,19.10
2022-09-28T03:37:29.240Z,19.00
2022-09-28T03:39:57.769Z,19.10
2022-09-28T03:42:26.369Z,19.10
2022-09-28T03:44:54.785Z,19.10
2022-09-28T03:47:23.205Z,19.00
2022-09-28T03:49:52.934Z,19.00
2022-09-28T03:52:21.249Z,19.00
2022-09-28T03:54:49.685Z,19.10
2022-09-28T03:57:18.061Z,19.10
2022-09-28T03:59:46.417Z,19.10
2022-09-28T04:02:14.890Z,19.10
2022-09-28T04:04:43.266Z,19.10
2022-09-28T04:07:13.061Z,19.10
2022-09-28T04:09:41.708Z,19.10
2022-09-28T04:12:10.070Z,19.10
2022-09-28T04:14:38.409Z,19.20
2022-09-28T04:17:07.274Z,19.10
2022-09-28T04:19:35.690Z,19.10
2022-09-28T04:22:04.942Z,19.00
2022-09-28T04:24:34.863Z,19.00
2022-09-28T04:27:17.038Z,19.00
2022-09-28T04:29:45.465Z,19.00
2022-09-28T04:32:13.766Z,19.00
2022-09-28T04:34:44.269Z,19.00
2022-09-28T04:37:12.878Z,19.00
2022-09-28T04:39:46.262Z,19.00
2022-09-28T04:42:16.971Z,19.00
2022-09-28T04:44:45.273Z,19.00
2022-09-28T04:47:13.609Z,19.00
2022-09-28T04:49:41.985Z,19.00
2022-09-28T04:52:15.814Z,18.90
2022-09-28T04:54:47.782Z,18.90
2022-09-28T04:57:16.182Z,18.90
2022-09-28T04:59:44.685Z,18.90
2022-09-28T05:02:15.308Z,18.90
2022-09-28T05:04:43.810Z,18.90
2022-09-28T05:07:12.177Z,18.90
2022-09-28T05:09:40.591Z,18.90
2022-09-28T05:12:10.993Z,18.90
2022-09-28T05:14:39.409Z,18.80
2022-09-28T05:17:07.936Z,18.90
2022-09-28T05:19:36.307Z,18.90
2022-09-28T05:22:06.179Z,18.80
2022-09-28T05:24:34.585Z,18.70
2022-09-28T05:27:02.942Z,18.70
2022-09-28T05:29:32.889Z,18.70
2022-09-28T05:32:02.411Z,18.70
2022-09-28T05:34:30.836Z,18.70
2022-09-28T05:36:59.193Z,18.70
2022-09-28T05:39:27.561Z,18.80
2022-09-28T05:41:57.881Z,18.90
2022-09-28T05:44:26.347Z,18.90
2022-09-28T05:46:56.172Z,18.90
2022-09-28T05:49:24.529Z,18.90
2022-09-28T05:51:52.875Z,18.90
2022-09-28T05:54:21.294Z,18.90
2022-09-28T05:56:49.692Z,19.00
2022-09-28T05:59:18.133Z,19.00
2022-09-28T06:01:46.532Z,19.00
2022-09-28T06:04:16.581Z,19.10
2022-09-28T06:06:45.034Z,19.20
2022-09-28T06:09:13.689Z,19.30
2022-09-28T06:12:00.523Z,19.40
2022-09-28T06:14:28.925Z,19.50
2022-09-28T06:16:57.333Z,19.60
2022-09-28T06:19:27.239Z,19.70
2022-09-28T06:21:58.353Z,19.70
2022-09-28T06:24:27.569Z,19.70
2022-09-28T06:26:55.933Z,19.80
2022-09-28T06:29:24.510Z,19.90
2022-09-28T06:31:52.857Z,20.00
2022-09-28T06:34:21.539Z,20.10
2022-09-28T06:36:51.465Z,20.20
2022-09-28T06:39:19.910Z,20.20
2022-09-28T06:41:48.290Z,20.30
2022-09-28T06:44:16.693Z,20.40
2022-09-28T06:46:45.035Z,20.60
2022-09-28T06:49:18.644Z,20.70
2022-09-28T06:51:47.851Z,20.70
2022-09-28T06:54:17.764Z,20.90
2022-09-28T06:56:46.183Z,20.90
2022-09-28T06:59:14.728Z,21.00
2022-09-28T07:01:43.097Z,21.00
2022-09-28T07:04:11.516Z,21.10
2022-09-28T07:06:40.016Z,21.10
2022-09-28T07:09:28.804Z,21.10
2022-09-28T07:11:59.583Z,21.10
2022-09-28T07:14:46.260Z,21.20
2022-09-28T07:17:16.004Z,21.30
2022-09-28T07:19:44.616Z,21.40
2022-09-28T07:22:18.418Z,21.50
2022-09-28T07:24:48.024Z,21.50
2022-09-28T07:27:17.786Z,21.50
2022-09-28T07:29:46.123Z,21.50
2022-09-28T07:32:14.541Z,21.60
2022-09-28T07:34:44.669Z,21.60
2022-09-28T07:37:13.717Z,21.80
2022-09-28T07:39:59.318Z,21.90
2022-09-28T07:42:30.333Z,21.90
2022-09-28T07:44:58.889Z,21.90
2022-09-28T07:47:32.302Z,22.00
2022-09-28T07:50:06.202Z,22.10
2022-09-28T07:52:35.248Z,22.20
2022-09-28T07:55:07.254Z,22.30
2022-09-28T07:57:37.371Z,22.50
2022-09-28T08:00:08.210Z,22.60
2022-09-28T08:02:36.677Z,22.80
2022-09-28T08:05:05.294Z,23.00
2022-09-28T08:07:34.573Z,23.20
2022-09-28T08:10:03.220Z,23.40
2022-09-28T08:12:31.599Z,23.90
2022-09-28T08:15:01.356Z,24.10
2022-09-28T08:17:29.718Z,24.00
2022-09-28T08:20:15.277Z,23.90
2022-09-28T08:22:43.664Z,24.10
2022-09-28T08:25:12.204Z,24.40
2022-09-28T08:27:40.673Z,24.70
2022-09-28T08:30:11.212Z,24.80
2022-09-28T08:32:39.632Z,24.80
2022-09-28T08:35:08.281Z,25.00
2022-09-28T08:37:36.629Z,25.00
2022-09-28T08:40:05.419Z,24.90
2022-09-28T08:42:35.190Z,25.00
2022-09-28T08:45:08.934Z,25.20
2022-09-28T08:47:59.628Z,25.30
2022-09-28T08:50:30.559Z,25.10
2022-09-28T08:53:00.818Z,25.00
2022-09-28T08:55:31.215Z,25.00
2022-09-28T08:58:03.144Z,24.80
2022-09-28T09:00:34.360Z,24.80
2022-09-28T09:03:06.161Z,25.00
2022-09-28T09:05:44.625Z,25.10
2022-09-28T09:08:24.884Z,25.00
2022-09-28T09:10:54.549Z,25.00
2022-09-28T09:13:40.938Z,24.80
2022-09-28T09:16:11.346Z,24.70
2022-09-28T09:18:44.335Z,24.60
2022-09-28T09:21:15.665Z,24.40
2022-09-28T09:23:53.201Z,24.30
2022-09-28T09:26:25.244Z,24.20
2022-09-28T09:29:09.204Z,24.30
2022-09-28T09:31:42.885Z,24.30
2022-09-28T09:34:20.932Z,24.30
2022-09-28T09:36:57.104Z,24.30
2022-09-28T09:39:33.391Z,24.30
2022-09-28T09:42:14.593Z,24.20
2022-09-28T09:44:58.545Z,24.20
2022-09-28T09:47:33.240Z,24.20
2022-09-28T09:50:11.350Z,24.20
2022-09-28T09:52:46.525Z,24.30
2022-09-28T09:55:16.699Z,24.30
2022-09-28T09:57:48.825Z,24.30
2022-09-28T10:00:18.711Z,24.20
2022-09-28T10:02:51.055Z,24.20
2022-09-28T10:05:25.555Z,24.20
2022-09-28T10:08:00.039Z,24.30
2022-09-28T10:10:31.267Z,24.40
2022-09-28T10:12:59.789Z,24.50
2022-09-28T10:15:29.090Z,24.50
2022-09-28T10:17:58.991Z,24.60
2022-09-28T10:20:30.497Z,24.60
2022-09-28T10:23:02.141Z,24.50
2022-09-28T10:25:33.333Z,24.60
2022-09-28T10:28:02.434Z,24.70
2022-09-28T10:30:32.371Z,24.80
2022-09-28T10:33:01.539Z,24.80
2022-09-28T10:35:32.589Z,24.90
2022-09-28T10:38:03.389Z,25.10
2022-09-28T10:40:40.273Z,25.20
2022-09-28T10:43:16.685Z,25.30
2022-09-28T10:45:45.348Z,25.20
2022-09-28T10:48:19.200Z,25.20
2022-09-28T10:51:00.474Z,25.20
2022-09-28T10:53:28.924Z,25.20
2022-09-28T10:55:59.291Z,25.20
2022-09-28T10:58:29.431Z,25.10
2022-09-28T11:01:02.456Z,25.00
2022-09-28T11:03:31.496Z,25.00
2022-09-28T11:06:02.849Z,24.90
2022-09-28T11:08:35.544Z,25.00
2022-09-28T11:11:05.247Z,25.10
2022-09-28T11:13:39.118Z,25.20
2022-09-28T11:16:07.656Z,25.20
2022-09-28T11:18:36.147Z,25.20
2022-09-28T11:21:12.652Z,25.20
2022-09-28T11:23:42.257Z,25.20
2022-09-28T11:26:18.220Z,25.30
2022-09-28T11:28:51.544Z,25.20
2022-09-28T11:31:25.029Z,25.20
2022-09-28T11:34:02.299Z,25.20
2022-09-28T11:36:38.318Z,25.20
2022-09-28T11:39:11.257Z,25.20
2022-09-28T11:41:49.650Z,25.10
2022-09-28T11:44:33.492Z,25.00
2022-09-28T11:47:07.305Z,25.10
2022-09-28T11:49:40.063Z,25.10
2022-09-28T11:52:12.407Z,25.00
2022-09-28T11:54:44.122Z,24.90
2022-09-28T11:57:16.021Z,24.90
2022-09-28T11:59:49.173Z,24.80
2022-09-28T12:02:19.811Z,24.80
2022-09-28T12:04:50.051Z,24.80
2022-09-28T12:07:23.273Z,24.90
2022-09-28T12:09:55.234Z,24.90
2022-09-28T12:12:26.082Z,24.90
2022-09-28T12:14:56.442Z,24.80
2022-09-28T12:17:26.965Z,24.80
2022-09-28T12:19:59.448Z,24.80
2022-09-28T12:22:33.262Z,24.90
2022-09-28T12:25:03.144Z,24.90
2022-09-28T12:27:33.753Z,25.00
2022-09-28T12:30:04.977Z,25.10
2022-09-28T12:32:37.495Z,25.10
2022-09-28T12:35:12.489Z,25.10
2022-09-28T12:37:51.499Z,25.10
2022-09-28T12:40:31.840Z,25.10
2022-09-28T12:43:08.202Z,25.10
2022-09-28T12:46:06.784Z,25.20
2022-09-28T12:48:37.137Z,25.20
2022-09-28T12:51:12.513Z,25.30
2022-09-28T12:53:54.185Z,25.30
2022-09-28T12:56:25.764Z,25.20
2022-09-28T12:59:01.518Z,25.20
2022-09-28T13:01:39.669Z,25.20
2022-09-28T13:04:17.376Z,25.20
2022-09-28T13:06:50.306Z,25.10
2022-09-28T13:09:22.707Z,25.00
2022-09-28T13:12:05.502Z,25.00
2022-09-28T13:15:00.630Z,25.00
2022-09-28T13:17:37.873Z,25.00
2022-09-28T13:20:13.846Z,25.00
2022-09-28T13:22:49.712Z,24.90
2022-09-28T13:25:21.862Z,24.80
2022-09-28T13:27:53.618Z,24.80
2022-09-28T13:30:22.212Z,24.80
2022-09-28T13:32:51.505Z,24.80
2022-09-28T13:35:20.591Z,24.80
2022-09-28T13:37:49.303Z,24.80
2022-09-28T13:40:19.264Z,24.90
2022-09-28T13:42:57.256Z,24.80
2022-09-28T13:45:32.497Z,24.70
2022-09-28T13:48:15.516Z,24.80
2022-09-28T13:50:53.094Z,24.90
2022-09-28T13:53:25.382Z,24.90
2022-09-28T13:55:58.517Z,24.90
2022-09-28T13:58:29.352Z,25.00
2022-09-28T14:01:00.517Z,25.00
2022-09-28T14:03:42.282Z,24.90
2022-09-28T14:06:22.549Z,24.90
2022-09-28T14:09:23.701Z,25.00
2022-09-28T14:11:57.188Z,24.90
2022-09-28T14:14:27.311Z,24.80
2022-09-28T14:17:01.572Z,24.80
2022-09-28T14:19:31.499Z,24.70
2022-09-28T14:22:05.127Z,24.70
2022-09-28T14:24:37.682Z,24.60
2022-09-28T14:27:26.738Z,24.70
2022-09-28T14:30:07.023Z,24.70
2022-09-28T14:32:37.556Z,24.80
2022-09-28T14:35:07.507Z,24.80
2022-09-28T14:37:54.394Z,24.70
2022-09-28T14:40:45.858Z,24.70
2022-09-28T14:43:28.159Z,24.60
2022-09-28T14:46:14.990Z,24.60
2022-09-28T14:48:46.001Z,24.50
2022-09-28T14:51:33.986Z,24.40
2022-09-28T14:54:03.816Z,24.40
2022-09-28T14:56:34.456Z,24.30
2022-09-28T14:59:03.449Z,24.20
2022-09-28T15:01:31.897Z,24.20
2022-09-28T15:04:04.764Z,24.10
2022-09-28T15:06:45.632Z,24.10
2022-09-28T15:09:27.655Z,24.10
2022-09-28T15:12:00.824Z,24.10
2022-09-28T15:14:32.045Z,24.10
2022-09-28T15:17:03.330Z,24.00
2022-09-28T15:19:37.865Z,24.00
2022-09-28T15:22:15.071Z,24.00
2022-09-28T15:24:46.099Z,23.90
2022-09-28T15:27:18.961Z,23.90
2022-09-28T15:29:56.554Z,23.90
2022-09-28T15:32:25.454Z,23.80
2022-09-28T15:34:56.947Z,23.80
2022-09-28T15:37:25.929Z,23.70
2022-09-28T15:39:55.238Z,23.70
2022-09-28T15:42:23.811Z,23.70
2022-09-28T15:45:02.025Z,23.80
2022-09-28T15:47:31.976Z,23.70
2022-09-28T15:50:02.826Z,23.60
2022-09-28T15:52:36.144Z,23.60
2022-09-28T15:55:06.447Z,23.50
2022-09-28T15:57:37.484Z,23.50
2022-09-28T16:00:07.373Z,23.40
2022-09-28T16:02:36.576Z,23.40
2022-09-28T16:05:30.355Z,23.30
2022-09-28T16:08:03.000Z,23.30
2022-09-28T16:10:33.897Z,23.30
2022-09-28T16:13:10.605Z,23.20
2022-09-28T16:15:39.495Z,23.20
2022-09-28T16:18:18.205Z,23.10
2022-09-28T16:20:49.646Z,23.10
2022-09-28T16:23:22.670Z,23.10
2022-09-28T16:25:53.234Z,23.10
2022-09-28T16:28:33.648Z,23.10
2022-09-28T16:31:04.285Z,23.00
2022-09-28T16:33:40.611Z,23.00
2022-09-28T16:36:13.402Z,23.00
2022-09-28T16:38:44.629Z,23.00
2022-09-28T16:41:13.849Z,22.90
2022-09-28T16:43:42.282Z,22.90
2022-09-28T16:46:12.173Z,22.90
2022-09-28T16:48:45.834Z,22.80
2022-09-28T16:51:15.633Z,22.80
2022-09-28T16:54:01.601Z,22.70
2022-09-28T16:56:30.103Z,22.70
2022-09-28T16:58:58.699Z,22.70
2022-09-28T17:01:27.217Z,22.70
2022-09-28T17:03:55.666Z,22.60
2022-09-28T17:06:26.120Z,22.60
2022-09-28T17:08:59.255Z,22.60
2022-09-28T17:11:27.848Z,22.50
2022-09-28T17:13:59.039Z,22.40
2022-09-28T17:16:57.360Z,22.40
2022-09-28T17:19:20.632Z,22.40
2022-09-28T17:21:51.169Z,22.30
2022-09-28T17:24:19.635Z,22.30
2022-09-28T17:26:49.117Z,22.30
2022-09-28T17:29:17.777Z,22.30
2022-09-28T17:31:46.470Z,22.20
2022-09-28T17:34:16.182Z,22.20
2022-09-28T17:36:45.248Z,22.10
2022-09-28T17:39:15.592Z,22.10
2022-09-28T17:41:43.971Z,22.00
2022-09-28T17:44:18.070Z,22.00
2022-09-28T17:46:49.057Z,22.00
2022-09-28T17:49:18.341Z,22.00
2022-09-28T17:51:47.018Z,21.90
2022-09-28T17:54:20.179Z,22.00
2022-09-28T17:56:49.141Z,21.90
2022-09-28T17:59:18.541Z,21.90
2022-09-28T18:01:48.398Z,21.90
2022-09-28T18:04:39.717Z,21.80
2022-09-28T18:07:05.347Z,21.80
2022-09-28T18:09:35.207Z,21.80
2022-09-28T18:12:06.301Z,21.70
2022-09-28T18:14:36.014Z,21.70
2022-09-28T18:17:04.606Z,21.60
2022-09-28T18:19:33.055Z,21.70
2022-09-28T18:22:01.900Z,21.60
2022-09-28T18:24:32.559Z,21.60
2022-09-28T18:27:02.456Z,21.60
2022-09-28T18:29:33.347Z,21.60
2022-09-28T18:32:02.673Z,21.60
2022-09-28T18:34:30.998Z,21.50
2022-09-28T18:36:59.377Z,21.50
2022-09-28T18:39:27.754Z,21.50
2022-09-28T18:41:56.124Z,21.40
2022-09-28T18:44:25.925Z,21.40
2022-09-28T18:46:54.496Z,21.40
2022-09-28T18:49:23.226Z,21.40
2022-09-28T18:51:51.641Z,21.40
2022-09-28T18:54:20.129Z,21.40
2022-09-28T18:56:49.811Z,21.40
2022-09-28T18:59:18.275Z,21.40
2022-09-28T19:01:48.306Z,21.40
2022-09-28T19:04:17.004Z,21.30
2022-09-28T19:06:50.443Z,21.30
2022-09-28T19:09:19.932Z,21.30
2022-09-28T19:11:48.539Z,21.20
2022-09-28T19:14:17.110Z,21.20
2022-09-28T19:16:45.721Z,21.20
2022-09-28T19:19:16.659Z,21.20
2022-09-28T19:21:45.754Z,21.20
2022-09-28T19:24:15.520Z,21.20
2022-09-28T19:26:44.172Z,21.30
2022-09-28T19:29:12.603Z,21.20
2022-09-28T19:31:41.408Z,21.20
2022-09-28T19:34:13.314Z,21.30
2022-09-28T19:36:44.294Z,21.30
2022-09-28T19:39:14.845Z,21.30
2022-09-28T19:41:47.946Z,21.30
2022-09-28T19:44:21.274Z,21.40
2022-09-28T19:46:49.713Z,21.40
2022-09-28T19:49:19.695Z,21.40
2022-09-28T19:54:38.541Z,21.50
2022-09-28T19:57:08.745Z,21.50
2022-09-28T19:59:37.479Z,21.40
2022-09-28T20:02:06.114Z,21.30
2022-09-28T20:04:34.797Z,21.30
2022-09-28T20:07:05.273Z,21.40
2022-09-28T20:09:33.978Z,21.30
2022-09-28T20:12:02.566Z,21.30
2022-09-28T20:14:34.253Z,21.30
2022-09-28T20:17:06.607Z,21.30
2022-09-28T20:19:35.145Z,21.40
2022-09-28T20:22:05.199Z,21.40
2022-09-28T20:24:33.688Z,21.40
2022-09-28T20:27:02.576Z,21.40
2022-09-28T20:29:33.488Z,21.30
2022-09-28T20:32:04.001Z,21.40
2022-09-28T20:34:33.601Z,21.40
2022-09-28T20:37:02.347Z,21.40
2022-09-28T20:39:32.186Z,21.50
2022-09-28T20:42:00.554Z,21.50
2022-09-28T20:44:28.849Z,21.60
2022-09-28T20:46:57.429Z,21.60
2022-09-28T20:49:27.183Z,21.60
2022-09-28T20:51:55.676Z,21.60
2022-09-28T20:54:24.138Z,21.60
2022-09-28T20:56:53.866Z,21.60
2022-09-28T20:59:25.916Z,21.60
2022-09-28T21:01:54.541Z,21.50
2022-09-28T21:04:22.920Z,21.50
2022-09-28T21:06:52.025Z,21.40
2022-09-28T21:09:20.380Z,21.40
2022-09-28T21:11:48.776Z,21.30
2022-09-28T21:14:18.619Z,21.40
2022-09-28T21:16:47.021Z,21.40
2022-09-28T21:19:15.400Z,21.40
2022-09-28T21:21:43.785Z,21.40
2022-09-28T21:24:12.245Z,21.40
2022-09-28T21:26:40.611Z,21.40
2022-09-28T21:29:11.997Z,21.40
2022-09-28T21:31:42.895Z,21.40
2022-09-28T21:34:13.268Z,21.40
2022-09-28T21:36:42.089Z,21.40
2022-09-28T21:39:10.863Z,21.40
2022-09-28T21:41:39.255Z,21.40
2022-09-28T21:44:07.697Z,21.50
2022-09-28T21:46:36.583Z,21.50
2022-09-28T21:49:07.589Z,21.50
2022-09-28T21:51:36.124Z,21.50
2022-09-28T21:54:04.709Z,21.50
2022-09-28T21:56:33.194Z,21.50
2022-09-28T21:59:02.487Z,21.50
2022-09-28T22:01:31.876Z,21.50
2022-09-28T22:04:00.437Z,21.60
2022-09-28T22:06:30.233Z,21.50
2022-09-28T22:08:58.995Z,21.60
2022-09-28T22:11:28.861Z,21.60
2022-09-28T22:13:57.906Z,21.70
2022-09-28T22:16:27.201Z,21.60
2022-09-28T22:18:55.760Z,21.60
2022-09-28T22:21:26.524Z,21.60
2022-09-28T22:24:01.149Z,21.50
2022-09-28T22:26:31.826Z,21.50
2022-09-28T22:29:02.707Z,21.40
2022-09-28T22:31:33.607Z,21.30
2022-09-28T22:34:02.570Z,21.30
2022-09-28T22:36:31.760Z,21.40
2022-09-28T22:39:02.223Z,21.30
2022-09-28T22:41:32.170Z,21.30
2022-09-28T22:44:01.435Z,21.30
2022-09-28T22:46:31.940Z,21.30
2022-09-28T22:49:01.780Z,21.30
2022-09-28T22:51:31.616Z,21.40
2022-09-28T22:54:01.771Z,21.30
2022-09-28T22:56:30.877Z,21.20
2022-09-28T22:58:59.698Z,21.20
2022-09-28T23:01:30.297Z,21.20
2022-09-28T23:03:59.941Z,21.20
2022-09-28T23:06:30.821Z,21.20
2022-09-28T23:09:01.196Z,21.20
2022-09-28T23:11:30.417Z,21.20
2022-09-28T23:14:00.482Z,21.20
2022-09-28T23:16:30.318Z,21.20
2022-09-28T23:18:59.119Z,21.20
2022-09-28T23:21:29.374Z,21.20
2022-09-28T23:24:01.063Z,21.20
2022-09-28T23:26:32.543Z,21.20
2022-09-28T23:29:01.973Z,21.20
2022-09-28T23:31:32.331Z,21.20
2022-09-28T23:34:02.348Z,21.20
2022-09-28T23:36:31.216Z,21.20
2022-09-28T23:39:00.144Z,21.20
2022-09-28T23:41:30.754Z,21.20
2022-09-28T23:43:59.452Z,21.10
2022-09-28T23:46:28.341Z,21.10
2022-09-28T23:48:57.158Z,21.10
2022-09-28T23:51:25.894Z,21.10
2022-09-28T23:53:54.609Z,21.10
2022-09-28T23:56:23.354Z,21.10
2022-09-28T23:58:53.565Z,21.10
